sensor_id;sensor_type;location;lat;lon;timestamp;pressure;altitude;pressure_sealevel;temperature
68743;BMP180;55725;42.758;26.702;2023-02-07T00:00:34;100602.00;;;-2.50
68743;BMP180;55725;42.758;26.702;2023-02-07T00:02:14;100606.00;;;-2.50
68743;BMP180;55725;42.758;26.702;2023-02-07T00:03:55;100609.00;;;-2.40
68743;BMP180;55725;42.758;26.702;2023-02-07T00:05:36;100601.00;;;-2.50
68743;BMP180;55725;42.758;26.702;2023-02-07T00:07:16;100620.00;;;-2.50
68743;BMP180;55725;42.758;26.702;2023-02-07T00:09:00;100609.00;;;-2.50
68743;BMP180;55725;42.758;26.702;2023-02-07T00:10:41;100611.00;;;-2.50
68743;BMP180;55725;42.758;26.702;2023-02-07T00:12:21;100606.00;;;-2.50
68743;BMP180;55725;42.758;26.702;2023-02-07T00:14:02;100603.00;;;-2.50
68743;BMP180;55725;42.758;26.702;2023-02-07T00:15:42;100608.00;;;-2.60
68743;BMP180;55725;42.758;26.702;2023-02-07T00:17:22;100609.00;;;-2.50
68743;BMP180;55725;42.758;26.702;2023-02-07T00:19:03;100612.00;;;-2.50
68743;BMP180;55725;42.758;26.702;2023-02-07T00:20:43;100610.00;;;-2.50
68743;BMP180;55725;42.758;26.702;2023-02-07T00:22:23;100602.00;;;-2.50
68743;BMP180;55725;42.758;26.702;2023-02-07T00:24:04;100616.00;;;-2.60
68743;BMP180;55725;42.758;26.702;2023-02-07T00:25:44;100611.00;;;-2.50
68743;BMP180;55725;42.758;26.702;2023-02-07T00:27:25;100614.00;;;-2.50
68743;BMP180;55725;42.758;26.702;2023-02-07T00:29:05;100622.00;;;-2.50
68743;BMP180;55725;42.758;26.702;2023-02-07T00:30:45;100620.00;;;-2.50
68743;BMP180;55725;42.758;26.702;2023-02-07T00:32:29;100618.00;;;-2.50
68743;BMP180;55725;42.758;26.702;2023-02-07T00:34:10;100624.00;;;-2.50
68743;BMP180;55725;42.758;26.702;2023-02-07T00:35:56;100612.00;;;-2.50
68743;BMP180;55725;42.758;26.702;2023-02-07T00:37:36;100616.00;;;-2.40
68743;BMP180;55725;42.758;26.702;2023-02-07T00:39:17;100617.00;;;-2.50
68743;BMP180;55725;42.758;26.702;2023-02-07T00:40:57;100609.00;;;-2.50
68743;BMP180;55725;42.758;26.702;2023-02-07T00:42:37;100618.00;;;-2.50
68743;BMP180;55725;42.758;26.702;2023-02-07T00:44:18;100632.00;;;-2.50
68743;BMP180;55725;42.758;26.702;2023-02-07T00:45:59;100618.00;;;-2.50
68743;BMP180;55725;42.758;26.702;2023-02-07T00:47:39;100618.00;;;-2.50
68743;BMP180;55725;42.758;26.702;2023-02-07T00:49:19;100623.00;;;-2.40
68743;BMP180;55725;42.758;26.702;2023-02-07T00:51:00;100637.00;;;-2.50
68743;BMP180;55725;42.758;26.702;2023-02-07T00:52:40;100632.00;;;-2.50
68743;BMP180;55725;42.758;26.702;2023-02-07T00:54:21;100633.00;;;-2.50
68743;BMP180;55725;42.758;26.702;2023-02-07T00:56:01;100641.00;;;-2.50
68743;BMP180;55725;42.758;26.702;2023-02-07T00:57:41;100634.00;;;-2.40
68743;BMP180;55725;42.758;26.702;2023-02-07T00:59:22;100630.00;;;-2.50
68743;BMP180;55725;42.758;26.702;2023-02-07T01:01:02;100627.00;;;-2.40
68743;BMP180;55725;42.758;26.702;2023-02-07T01:02:43;100632.00;;;-2.50
68743;BMP180;55725;42.758;26.702;2023-02-07T01:04:23;100621.00;;;-2.50
68743;BMP180;55725;42.758;26.702;2023-02-07T01:06:04;100622.00;;;-2.50
68743;BMP180;55725;42.758;26.702;2023-02-07T01:07:44;100626.00;;;-2.50
68743;BMP180;55725;42.758;26.702;2023-02-07T01:09:24;100623.00;;;-2.50
68743;BMP180;55725;42.758;26.702;2023-02-07T01:11:09;100627.00;;;-2.40
68743;BMP180;55725;42.758;26.702;2023-02-07T01:12:50;100629.00;;;-2.50
68743;BMP180;55725;42.758;26.702;2023-02-07T01:14:31;100632.00;;;-2.50
68743;BMP180;55725;42.758;26.702;2023-02-07T01:16:18;100632.00;;;-2.50
68743;BMP180;55725;42.758;26.702;2023-02-07T01:17:59;100628.00;;;-2.40
68743;BMP180;55725;42.758;26.702;2023-02-07T01:19:39;100628.00;;;-2.50
68743;BMP180;55725;42.758;26.702;2023-02-07T01:21:20;100635.00;;;-2.50
68743;BMP180;55725;42.758;26.702;2023-02-07T01:23:01;100629.00;;;-2.50
68743;BMP180;55725;42.758;26.702;2023-02-07T01:24:42;100629.00;;;-2.50
68743;BMP180;55725;42.758;26.702;2023-02-07T01:26:23;100626.00;;;-2.50
68743;BMP180;55725;42.758;26.702;2023-02-07T01:28:03;100611.00;;;-2.50
68743;BMP180;55725;42.758;26.702;2023-02-07T01:29:43;100620.00;;;-2.40
68743;BMP180;55725;42.758;26.702;2023-02-07T01:31:24;100620.00;;;-2.50
68743;BMP180;55725;42.758;26.702;2023-02-07T01:33:04;100620.00;;;-2.50
68743;BMP180;55725;42.758;26.702;2023-02-07T01:34:44;100619.00;;;-2.40
68743;BMP180;55725;42.758;26.702;2023-02-07T01:36:26;100627.00;;;-2.40
68743;BMP180;55725;42.758;26.702;2023-02-07T01:38:07;100624.00;;;-2.50
68743;BMP180;55725;42.758;26.702;2023-02-07T01:39:47;100627.00;;;-2.40
68743;BMP180;55725;42.758;26.702;2023-02-07T01:41:27;100622.00;;;-2.50
68743;BMP180;55725;42.758;26.702;2023-02-07T01:43:13;100627.00;;;-2.50
68743;BMP180;55725;42.758;26.702;2023-02-07T01:44:57;100620.00;;;-2.60
68743;BMP180;55725;42.758;26.702;2023-02-07T01:46:38;100621.00;;;-2.50
68743;BMP180;55725;42.758;26.702;2023-02-07T01:48:22;100622.00;;;-2.50
68743;BMP180;55725;42.758;26.702;2023-02-07T01:50:04;100624.00;;;-2.60
68743;BMP180;55725;42.758;26.702;2023-02-07T01:51:45;100624.00;;;-2.50
68743;BMP180;55725;42.758;26.702;2023-02-07T01:53:27;100611.00;;;-2.50
68743;BMP180;55725;42.758;26.702;2023-02-07T01:55:09;100619.00;;;-2.50
68743;BMP180;55725;42.758;26.702;2023-02-07T01:56:54;100626.00;;;-2.50
68743;BMP180;55725;42.758;26.702;2023-02-07T01:58:36;100613.00;;;-2.50
68743;BMP180;55725;42.758;26.702;2023-02-07T02:00:17;100616.00;;;-2.50
68743;BMP180;55725;42.758;26.702;2023-02-07T02:01:58;100619.00;;;-2.50
68743;BMP180;55725;42.758;26.702;2023-02-07T02:03:40;100618.00;;;-2.50
68743;BMP180;55725;42.758;26.702;2023-02-07T02:05:22;100632.00;;;-2.50
68743;BMP180;55725;42.758;26.702;2023-02-07T02:07:03;100636.00;;;-2.50
68743;BMP180;55725;42.758;26.702;2023-02-07T02:08:44;100631.00;;;-2.50
68743;BMP180;55725;42.758;26.702;2023-02-07T02:10:27;100627.00;;;-2.60
68743;BMP180;55725;42.758;26.702;2023-02-07T02:15:56;100642.00;;;-2.60
68743;BMP180;55725;42.758;26.702;2023-02-07T02:23:22;100653.00;;;-2.60
68743;BMP180;55725;42.758;26.702;2023-02-07T02:27:15;100649.00;;;-2.50
68743;BMP180;55725;42.758;26.702;2023-02-07T02:35:23;100653.00;;;-2.60
68743;BMP180;55725;42.758;26.702;2023-02-07T02:38:29;100657.00;;;-2.70
68743;BMP180;55725;42.758;26.702;2023-02-07T02:42:17;100647.00;;;-2.60
68743;BMP180;55725;42.758;26.702;2023-02-07T02:44:09;100648.00;;;-2.70
68743;BMP180;55725;42.758;26.702;2023-02-07T02:45:59;100665.00;;;-2.70
68743;BMP180;55725;42.758;26.702;2023-02-07T02:47:41;100650.00;;;-2.70
68743;BMP180;55725;42.758;26.702;2023-02-07T02:49:22;100652.00;;;-2.80
68743;BMP180;55725;42.758;26.702;2023-02-07T02:51:04;100656.00;;;-2.80
68743;BMP180;55725;42.758;26.702;2023-02-07T02:52:44;100652.00;;;-2.80
68743;BMP180;55725;42.758;26.702;2023-02-07T02:54:35;100648.00;;;-2.70
68743;BMP180;55725;42.758;26.702;2023-02-07T03:08:34;100672.00;;;-2.90
68743;BMP180;55725;42.758;26.702;2023-02-07T03:14:21;100661.00;;;-3.00
68743;BMP180;55725;42.758;26.702;2023-02-07T03:16:08;100662.00;;;-3.00
68743;BMP180;55725;42.758;26.702;2023-02-07T03:17:52;100667.00;;;-3.00
68743;BMP180;55725;42.758;26.702;2023-02-07T03:19:39;100666.00;;;-2.90
68743;BMP180;55725;42.758;26.702;2023-02-07T03:21:33;100669.00;;;-2.90
68743;BMP180;55725;42.758;26.702;2023-02-07T03:23:15;100673.00;;;-2.90
68743;BMP180;55725;42.758;26.702;2023-02-07T03:24:56;100671.00;;;-3.00
68743;BMP180;55725;42.758;26.702;2023-02-07T03:26:38;100662.00;;;-3.00
68743;BMP180;55725;42.758;26.702;2023-02-07T03:28:19;100666.00;;;-3.00
68743;BMP180;55725;42.758;26.702;2023-02-07T03:30:01;100665.00;;;-2.90
68743;BMP180;55725;42.758;26.702;2023-02-07T03:31:43;100677.00;;;-3.00
68743;BMP180;55725;42.758;26.702;2023-02-07T03:33:25;100666.00;;;-3.00
68743;BMP180;55725;42.758;26.702;2023-02-07T03:35:10;100671.00;;;-3.10
68743;BMP180;55725;42.758;26.702;2023-02-07T03:36:54;100670.00;;;-3.10
68743;BMP180;55725;42.758;26.702;2023-02-07T03:38:37;100677.00;;;-3.10
68743;BMP180;55725;42.758;26.702;2023-02-07T03:40:17;100669.00;;;-3.20
68743;BMP180;55725;42.758;26.702;2023-02-07T03:42:02;100667.00;;;-3.10
68743;BMP180;55725;42.758;26.702;2023-02-07T03:43:43;100674.00;;;-3.20
68743;BMP180;55725;42.758;26.702;2023-02-07T03:45:24;100669.00;;;-3.10
68743;BMP180;55725;42.758;26.702;2023-02-07T03:47:04;100664.00;;;-3.10
68743;BMP180;55725;42.758;26.702;2023-02-07T03:48:44;100667.00;;;-3.30
68743;BMP180;55725;42.758;26.702;2023-02-07T03:50:25;100672.00;;;-3.20
68743;BMP180;55725;42.758;26.702;2023-02-07T03:52:05;100669.00;;;-3.40
68743;BMP180;55725;42.758;26.702;2023-02-07T03:53:45;100669.00;;;-3.30
68743;BMP180;55725;42.758;26.702;2023-02-07T03:55:25;100661.00;;;-3.40
68743;BMP180;55725;42.758;26.702;2023-02-07T03:57:06;100673.00;;;-3.50
68743;BMP180;55725;42.758;26.702;2023-02-07T03:58:47;100680.00;;;-3.50
68743;BMP180;55725;42.758;26.702;2023-02-07T04:00:27;100676.00;;;-3.20
68743;BMP180;55725;42.758;26.702;2023-02-07T04:02:07;100678.00;;;-3.40
68743;BMP180;55725;42.758;26.702;2023-02-07T04:03:47;100676.00;;;-3.30
68743;BMP180;55725;42.758;26.702;2023-02-07T04:05:28;100684.00;;;-3.30
68743;BMP180;55725;42.758;26.702;2023-02-07T04:07:08;100676.00;;;-3.40
68743;BMP180;55725;42.758;26.702;2023-02-07T04:08:49;100676.00;;;-3.40
68743;BMP180;55725;42.758;26.702;2023-02-07T04:10:29;100673.00;;;-3.60
68743;BMP180;55725;42.758;26.702;2023-02-07T04:12:10;100674.00;;;-3.50
68743;BMP180;55725;42.758;26.702;2023-02-07T04:13:50;100670.00;;;-3.20
68743;BMP180;55725;42.758;26.702;2023-02-07T04:15:30;100669.00;;;-3.40
68743;BMP180;55725;42.758;26.702;2023-02-07T04:17:10;100669.00;;;-3.50
68743;BMP180;55725;42.758;26.702;2023-02-07T04:18:51;100681.00;;;-3.60
68743;BMP180;55725;42.758;26.702;2023-02-07T04:20:31;100676.00;;;-3.20
68743;BMP180;55725;42.758;26.702;2023-02-07T04:22:11;100674.00;;;-3.80
68743;BMP180;55725;42.758;26.702;2023-02-07T04:23:52;100681.00;;;-4.20
68743;BMP180;55725;42.758;26.702;2023-02-07T04:25:32;100669.00;;;-4.30
68743;BMP180;55725;42.758;26.702;2023-02-07T04:27:12;100679.00;;;-4.10
68743;BMP180;55725;42.758;26.702;2023-02-07T04:28:52;100675.00;;;-4.30
68743;BMP180;55725;42.758;26.702;2023-02-07T04:30:33;100686.00;;;-3.90
68743;BMP180;55725;42.758;26.702;2023-02-07T04:32:13;100674.00;;;-4.10
68743;BMP180;55725;42.758;26.702;2023-02-07T04:33:54;100676.00;;;-4.20
68743;BMP180;55725;42.758;26.702;2023-02-07T04:35:34;100680.00;;;-4.40
68743;BMP180;55725;42.758;26.702;2023-02-07T04:37:14;100679.00;;;-4.10
68743;BMP180;55725;42.758;26.702;2023-02-07T04:38:54;100681.00;;;-4.00
68743;BMP180;55725;42.758;26.702;2023-02-07T04:40:35;100684.00;;;-4.10
68743;BMP180;55725;42.758;26.702;2023-02-07T04:42:17;100692.00;;;-4.20
68743;BMP180;55725;42.758;26.702;2023-02-07T04:43:57;100707.00;;;-4.10
68743;BMP180;55725;42.758;26.702;2023-02-07T04:45:38;100703.00;;;-4.10
68743;BMP180;55725;42.758;26.702;2023-02-07T04:47:18;100713.00;;;-4.20
68743;BMP180;55725;42.758;26.702;2023-02-07T04:48:58;100700.00;;;-4.50
68743;BMP180;55725;42.758;26.702;2023-02-07T04:50:39;100695.00;;;-4.50
68743;BMP180;55725;42.758;26.702;2023-02-07T04:52:19;100707.00;;;-4.80
68743;BMP180;55725;42.758;26.702;2023-02-07T04:53:59;100701.00;;;-5.00
68743;BMP180;55725;42.758;26.702;2023-02-07T04:55:39;100699.00;;;-4.70
68743;BMP180;55725;42.758;26.702;2023-02-07T04:57:20;100702.00;;;-4.90
68743;BMP180;55725;42.758;26.702;2023-02-07T04:59:00;100716.00;;;-4.80
68743;BMP180;55725;42.758;26.702;2023-02-07T05:00:40;100712.00;;;-4.70
68743;BMP180;55725;42.758;26.702;2023-02-07T05:02:21;100718.00;;;-4.90
68743;BMP180;55725;42.758;26.702;2023-02-07T05:04:01;100714.00;;;-4.90
68743;BMP180;55725;42.758;26.702;2023-02-07T05:05:42;100721.00;;;-4.80
68743;BMP180;55725;42.758;26.702;2023-02-07T05:07:23;100718.00;;;-4.80
68743;BMP180;55725;42.758;26.702;2023-02-07T05:09:03;100713.00;;;-4.80
68743;BMP180;55725;42.758;26.702;2023-02-07T05:10:44;100707.00;;;-4.70
68743;BMP180;55725;42.758;26.702;2023-02-07T05:12:24;100713.00;;;-4.80
68743;BMP180;55725;42.758;26.702;2023-02-07T05:14:04;100722.00;;;-4.90
68743;BMP180;55725;42.758;26.702;2023-02-07T05:15:45;100730.00;;;-4.70
68743;BMP180;55725;42.758;26.702;2023-02-07T05:17:25;100726.00;;;-4.60
68743;BMP180;55725;42.758;26.702;2023-02-07T05:19:05;100725.00;;;-4.60
68743;BMP180;55725;42.758;26.702;2023-02-07T05:20:46;100719.00;;;-4.40
68743;BMP180;55725;42.758;26.702;2023-02-07T05:22:26;100725.00;;;-4.50
68743;BMP180;55725;42.758;26.702;2023-02-07T05:24:07;100722.00;;;-4.60
68743;BMP180;55725;42.758;26.702;2023-02-07T05:25:47;100731.00;;;-4.80
68743;BMP180;55725;42.758;26.702;2023-02-07T05:27:28;100733.00;;;-4.50
68743;BMP180;55725;42.758;26.702;2023-02-07T05:29:08;100725.00;;;-4.50
68743;BMP180;55725;42.758;26.702;2023-02-07T05:30:51;100720.00;;;-4.60
68743;BMP180;55725;42.758;26.702;2023-02-07T05:32:32;100725.00;;;-4.50
68743;BMP180;55725;42.758;26.702;2023-02-07T05:34:31;100733.00;;;-4.20
68743;BMP180;55725;42.758;26.702;2023-02-07T05:36:11;100722.00;;;-4.10
68743;BMP180;55725;42.758;26.702;2023-02-07T05:37:51;100717.00;;;-4.10
68743;BMP180;55725;42.758;26.702;2023-02-07T05:39:32;100726.00;;;-4.10
68743;BMP180;55725;42.758;26.702;2023-02-07T05:41:12;100728.00;;;-4.20
68743;BMP180;55725;42.758;26.702;2023-02-07T05:42:53;100731.00;;;-4.30
68743;BMP180;55725;42.758;26.702;2023-02-07T05:44:33;100720.00;;;-4.40
68743;BMP180;55725;42.758;26.702;2023-02-07T05:46:14;100702.00;;;-4.10
68743;BMP180;55725;42.758;26.702;2023-02-07T05:47:54;100716.00;;;-4.00
68743;BMP180;55725;42.758;26.702;2023-02-07T05:49:34;100714.00;;;-3.90
68743;BMP180;55725;42.758;26.702;2023-02-07T05:51:15;100708.00;;;-3.70
68743;BMP180;55725;42.758;26.702;2023-02-07T05:52:55;100710.00;;;-3.80
68743;BMP180;55725;42.758;26.702;2023-02-07T05:54:35;100713.00;;;-3.60
68743;BMP180;55725;42.758;26.702;2023-02-07T05:56:15;100714.00;;;-3.60
68743;BMP180;55725;42.758;26.702;2023-02-07T05:57:56;100710.00;;;-3.60
68743;BMP180;55725;42.758;26.702;2023-02-07T05:59:36;100714.00;;;-3.60
68743;BMP180;55725;42.758;26.702;2023-02-07T06:01:17;100690.00;;;-3.60
68743;BMP180;55725;42.758;26.702;2023-02-07T06:02:57;100702.00;;;-3.20
68743;BMP180;55725;42.758;26.702;2023-02-07T06:04:37;100700.00;;;-3.10
68743;BMP180;55725;42.758;26.702;2023-02-07T06:06:18;100702.00;;;-3.40
68743;BMP180;55725;42.758;26.702;2023-02-07T06:07:58;100701.00;;;-3.30
68743;BMP180;55725;42.758;26.702;2023-02-07T06:09:38;100696.00;;;-3.20
68743;BMP180;55725;42.758;26.702;2023-02-07T06:11:18;100693.00;;;-3.10
68743;BMP180;55725;42.758;26.702;2023-02-07T06:12:59;100695.00;;;-3.20
68743;BMP180;55725;42.758;26.702;2023-02-07T06:14:39;100690.00;;;-3.10
68743;BMP180;55725;42.758;26.702;2023-02-07T06:16:19;100684.00;;;-2.90
68743;BMP180;55725;42.758;26.702;2023-02-07T06:18:00;100684.00;;;-2.90
68743;BMP180;55725;42.758;26.702;2023-02-07T06:19:40;100683.00;;;-2.80
68743;BMP180;55725;42.758;26.702;2023-02-07T06:21:20;100684.00;;;-2.70
68743;BMP180;55725;42.758;26.702;2023-02-07T06:23:00;100680.00;;;-2.50
68743;BMP180;55725;42.758;26.702;2023-02-07T06:24:41;100677.00;;;-2.30
68743;BMP180;55725;42.758;26.702;2023-02-07T06:26:21;100682.00;;;-2.40
68743;BMP180;55725;42.758;26.702;2023-02-07T06:28:01;100697.00;;;-2.30
68743;BMP180;55725;42.758;26.702;2023-02-07T06:29:42;100678.00;;;-2.40
68743;BMP180;55725;42.758;26.702;2023-02-07T06:31:22;100682.00;;;-2.20
68743;BMP180;55725;42.758;26.702;2023-02-07T06:33:02;100674.00;;;-2.20
68743;BMP180;55725;42.758;26.702;2023-02-07T06:34:43;100679.00;;;-2.30
68743;BMP180;55725;42.758;26.702;2023-02-07T06:36:23;100707.00;;;-2.00
68743;BMP180;55725;42.758;26.702;2023-02-07T06:38:03;100670.00;;;-2.50
68743;BMP180;55725;42.758;26.702;2023-02-07T06:39:44;100710.00;;;-2.80
68743;BMP180;55725;42.758;26.702;2023-02-07T06:41:24;100672.00;;;-2.50
68743;BMP180;55725;42.758;26.702;2023-02-07T06:43:04;100663.00;;;-2.20
68743;BMP180;55725;42.758;26.702;2023-02-07T06:44:45;100687.00;;;-2.20
68743;BMP180;55725;42.758;26.702;2023-02-07T06:46:25;100661.00;;;-2.10
68743;BMP180;55725;42.758;26.702;2023-02-07T06:48:05;100655.00;;;-2.00
68743;BMP180;55725;42.758;26.702;2023-02-07T06:49:46;100710.00;;;-1.60
68743;BMP180;55725;42.758;26.702;2023-02-07T06:51:26;100652.00;;;-2.20
68743;BMP180;55725;42.758;26.702;2023-02-07T06:53:07;100713.00;;;-1.80
68743;BMP180;55725;42.758;26.702;2023-02-07T06:54:47;100728.00;;;-1.90
68743;BMP180;55725;42.758;26.702;2023-02-07T06:56:28;100676.00;;;-2.00
68743;BMP180;55725;42.758;26.702;2023-02-07T06:58:08;100641.00;;;-2.50
68743;BMP180;55725;42.758;26.702;2023-02-07T06:59:49;100679.00;;;-2.60
68743;BMP180;55725;42.758;26.702;2023-02-07T07:01:29;100672.00;;;-2.00
68743;BMP180;55725;42.758;26.702;2023-02-07T07:03:13;100705.00;;;-2.00
68743;BMP180;55725;42.758;26.702;2023-02-07T07:04:54;100634.00;;;-1.40
68743;BMP180;55725;42.758;26.702;2023-02-07T07:06:34;100634.00;;;-1.40
68743;BMP180;55725;42.758;26.702;2023-02-07T07:08:14;100694.00;;;-0.70
68743;BMP180;55725;42.758;26.702;2023-02-07T07:09:57;100645.00;;;-1.00
68743;BMP180;55725;42.758;26.702;2023-02-07T07:11:38;100741.00;;;-0.80
68743;BMP180;55725;42.758;26.702;2023-02-07T07:13:22;100642.00;;;-1.50
68743;BMP180;55725;42.758;26.702;2023-02-07T07:15:02;100634.00;;;-0.80
68743;BMP180;55725;42.758;26.702;2023-02-07T07:16:42;100639.00;;;-0.50
68743;BMP180;55725;42.758;26.702;2023-02-07T07:18:23;100737.00;;;-1.10
68743;BMP180;55725;42.758;26.702;2023-02-07T07:20:03;100654.00;;;-1.20
68743;BMP180;55725;42.758;26.702;2023-02-07T07:21:44;100635.00;;;-1.10
68743;BMP180;55725;42.758;26.702;2023-02-07T07:23:24;100749.00;;;-1.50
68743;BMP180;55725;42.758;26.702;2023-02-07T07:25:04;100753.00;;;-1.20
68743;BMP180;55725;42.758;26.702;2023-02-07T07:26:45;100682.00;;;-1.50
68743;BMP180;55725;42.758;26.702;2023-02-07T07:28:25;100751.00;;;-1.60
68743;BMP180;55725;42.758;26.702;2023-02-07T07:30:06;100692.00;;;-2.00
68743;BMP180;55725;42.758;26.702;2023-02-07T07:31:48;100742.00;;;-1.40
68743;BMP180;55725;42.758;26.702;2023-02-07T07:33:28;100739.00;;;-1.80
68743;BMP180;55725;42.758;26.702;2023-02-07T07:35:08;100734.00;;;-1.60
68743;BMP180;55725;42.758;26.702;2023-02-07T07:36:49;100633.00;;;-1.70
68743;BMP180;55725;42.758;26.702;2023-02-07T07:38:29;100639.00;;;-1.40
68743;BMP180;55725;42.758;26.702;2023-02-07T07:40:10;100630.00;;;-1.20
68743;BMP180;55725;42.758;26.702;2023-02-07T07:41:50;100754.00;;;-0.90
68743;BMP180;55725;42.758;26.702;2023-02-07T07:43:31;100751.00;;;-1.30
68743;BMP180;55725;42.758;26.702;2023-02-07T07:45:11;100712.00;;;-1.00
68743;BMP180;55725;42.758;26.702;2023-02-07T07:46:52;100685.00;;;-1.20
68743;BMP180;55725;42.758;26.702;2023-02-07T07:48:32;100741.00;;;-1.40
68743;BMP180;55725;42.758;26.702;2023-02-07T07:50:13;100626.00;;;-2.40
68743;BMP180;55725;42.758;26.702;2023-02-07T07:51:53;100658.00;;;-1.60
68743;BMP180;55725;42.758;26.702;2023-02-07T07:53:33;100727.00;;;-0.70
68743;BMP180;55725;42.758;26.702;2023-02-07T07:55:14;100750.00;;;-1.60
68743;BMP180;55725;42.758;26.702;2023-02-07T07:56:54;100737.00;;;-1.70
68743;BMP180;55725;42.758;26.702;2023-02-07T07:58:35;100756.00;;;-1.70
68743;BMP180;55725;42.758;26.702;2023-02-07T08:00:15;100756.00;;;-1.70
68743;BMP180;55725;42.758;26.702;2023-02-07T08:01:55;100621.00;;;-1.80
68743;BMP180;55725;42.758;26.702;2023-02-07T08:03:36;100724.00;;;-1.80
68743;BMP180;55725;42.758;26.702;2023-02-07T08:05:16;100626.00;;;-1.50
68743;BMP180;55725;42.758;26.702;2023-02-07T08:06:56;100603.00;;;-0.90
68743;BMP180;55725;42.758;26.702;2023-02-07T08:08:37;100603.00;;;-1.30
68743;BMP180;55725;42.758;26.702;2023-02-07T08:10:17;100651.00;;;-0.40
68743;BMP180;55725;42.758;26.702;2023-02-07T08:11:57;100606.00;;;-0.90
68743;BMP180;55725;42.758;26.702;2023-02-07T08:13:38;100609.00;;;-0.40
68743;BMP180;55725;42.758;26.702;2023-02-07T08:15:18;100615.00;;;0.40
68743;BMP180;55725;42.758;26.702;2023-02-07T08:16:58;100604.00;;;0.30
68743;BMP180;55725;42.758;26.702;2023-02-07T08:18:38;100602.00;;;-0.20
68743;BMP180;55725;42.758;26.702;2023-02-07T08:20:19;100601.00;;;0.00
68743;BMP180;55725;42.758;26.702;2023-02-07T08:21:59;100601.00;;;0.30
68743;BMP180;55725;42.758;26.702;2023-02-07T08:23:39;100604.00;;;0.60
68743;BMP180;55725;42.758;26.702;2023-02-07T08:25:20;100601.00;;;0.70
68743;BMP180;55725;42.758;26.702;2023-02-07T08:27:00;100590.00;;;0.50
68743;BMP180;55725;42.758;26.702;2023-02-07T08:28:41;100592.00;;;0.30
68743;BMP180;55725;42.758;26.702;2023-02-07T08:30:21;100597.00;;;0.50
68743;BMP180;55725;42.758;26.702;2023-02-07T08:32:01;100597.00;;;0.90
68743;BMP180;55725;42.758;26.702;2023-02-07T08:33:42;100600.00;;;0.40
68743;BMP180;55725;42.758;26.702;2023-02-07T08:35:23;100592.00;;;0.30
68743;BMP180;55725;42.758;26.702;2023-02-07T08:37:06;100592.00;;;0.10
68743;BMP180;55725;42.758;26.702;2023-02-07T08:38:47;100590.00;;;0.20
68743;BMP180;55725;42.758;26.702;2023-02-07T08:40:27;100610.00;;;0.60
68743;BMP180;55725;42.758;26.702;2023-02-07T08:42:08;100599.00;;;0.90
68743;BMP180;55725;42.758;26.702;2023-02-07T08:43:49;100583.00;;;0.50
68743;BMP180;55725;42.758;26.702;2023-02-07T08:45:29;100604.00;;;0.60
68743;BMP180;55725;42.758;26.702;2023-02-07T08:47:09;100598.00;;;1.00
68743;BMP180;55725;42.758;26.702;2023-02-07T08:48:50;100595.00;;;1.20
68743;BMP180;55725;42.758;26.702;2023-02-07T08:50:30;100607.00;;;0.80
68743;BMP180;55725;42.758;26.702;2023-02-07T08:52:11;100586.00;;;0.50
68743;BMP180;55725;42.758;26.702;2023-02-07T08:53:51;100576.00;;;0.50
68743;BMP180;55725;42.758;26.702;2023-02-07T08:55:32;100590.00;;;1.90
68743;BMP180;55725;42.758;26.702;2023-02-07T08:57:13;100734.00;;;1.00
68743;BMP180;55725;42.758;26.702;2023-02-07T08:58:53;100592.00;;;0.20
68743;BMP180;55725;42.758;26.702;2023-02-07T09:00:34;100701.00;;;1.60
68743;BMP180;55725;42.758;26.702;2023-02-07T09:02:14;100736.00;;;2.00
68743;BMP180;55725;42.758;26.702;2023-02-07T09:03:55;100605.00;;;1.90
68743;BMP180;55725;42.758;26.702;2023-02-07T09:05:35;100599.00;;;0.90
68743;BMP180;55725;42.758;26.702;2023-02-07T09:07:16;100686.00;;;1.40
68743;BMP180;55725;42.758;26.702;2023-02-07T09:08:56;100665.00;;;2.20
68743;BMP180;55725;42.758;26.702;2023-02-07T09:10:38;100696.00;;;0.80
68743;BMP180;55725;42.758;26.702;2023-02-07T09:12:18;100619.00;;;1.40
68743;BMP180;55725;42.758;26.702;2023-02-07T09:13:58;100600.00;;;1.50
68743;BMP180;55725;42.758;26.702;2023-02-07T09:15:39;100609.00;;;1.70
68743;BMP180;55725;42.758;26.702;2023-02-07T09:17:19;100729.00;;;2.90
68743;BMP180;55725;42.758;26.702;2023-02-07T09:18:59;100628.00;;;2.60
68743;BMP180;55725;42.758;26.702;2023-02-07T09:20:40;100586.00;;;2.20
68743;BMP180;55725;42.758;26.702;2023-02-07T09:22:20;100598.00;;;2.00
68743;BMP180;55725;42.758;26.702;2023-02-07T09:24:00;100735.00;;;1.90
68743;BMP180;55725;42.758;26.702;2023-02-07T09:25:40;100747.00;;;0.20
68743;BMP180;55725;42.758;26.702;2023-02-07T09:27:21;100583.00;;;1.80
68743;BMP180;55725;42.758;26.702;2023-02-07T09:29:01;100742.00;;;3.30
68743;BMP180;55725;42.758;26.702;2023-02-07T09:30:42;100575.00;;;2.70
68743;BMP180;55725;42.758;26.702;2023-02-07T09:32:22;100661.00;;;1.90
68743;BMP180;55725;42.758;26.702;2023-02-07T09:34:02;100733.00;;;1.40
68743;BMP180;55725;42.758;26.702;2023-02-07T09:35:44;100583.00;;;1.50
68743;BMP180;55725;42.758;26.702;2023-02-07T09:37:25;100594.00;;;2.60
68743;BMP180;55725;42.758;26.702;2023-02-07T09:39:05;100636.00;;;3.00
68743;BMP180;55725;42.758;26.702;2023-02-07T09:40:46;100579.00;;;2.90
68743;BMP180;55725;42.758;26.702;2023-02-07T09:42:29;100650.00;;;2.80
68743;BMP180;55725;42.758;26.702;2023-02-07T09:44:16;100577.00;;;2.20
68743;BMP180;55725;42.758;26.702;2023-02-07T09:45:58;100564.00;;;2.90
68743;BMP180;55725;42.758;26.702;2023-02-07T09:47:41;100700.00;;;2.20
68743;BMP180;55725;42.758;26.702;2023-02-07T09:49:34;100559.00;;;0.80
68743;BMP180;55725;42.758;26.702;2023-02-07T09:51:19;100695.00;;;0.70
68743;BMP180;55725;42.758;26.702;2023-02-07T09:53:06;100551.00;;;1.60
68743;BMP180;55725;42.758;26.702;2023-02-07T09:54:48;100709.00;;;1.50
68743;BMP180;55725;42.758;26.702;2023-02-07T09:56:29;100698.00;;;1.80
68743;BMP180;55725;42.758;26.702;2023-02-07T09:58:16;100558.00;;;2.00
68743;BMP180;55725;42.758;26.702;2023-02-07T09:59:58;100682.00;;;3.70
68743;BMP180;55725;42.758;26.702;2023-02-07T10:01:43;100550.00;;;2.50
68743;BMP180;55725;42.758;26.702;2023-02-07T10:03:25;100597.00;;;3.30
68743;BMP180;55725;42.758;26.702;2023-02-07T10:05:15;100631.00;;;3.10